sensor_id;sensor_type;location;lat;lon;timestamp;pressure;altitude;pressure_sealevel;temperature;humidity
75039;BME280;63609;49.992;14.512;2024-03-08T00:00:17;98500.31;;;0.91;58.63
75039;BME280;63609;49.992;14.512;2024-03-08T00:02:48;98491.72;;;1.04;58.60
75039;BME280;63609;49.992;14.512;2024-03-08T00:05:18;98500.63;;;0.85;59.44
75039;BME280;63609;49.992;14.512;2024-03-08T00:07:44;98497.09;;;0.68;59.58
75039;BME280;63609;49.992;14.512;2024-03-08T00:10:13;98491.25;;;0.96;59.56
75039;BME280;63609;49.992;14.512;2024-03-08T00:12:45;98492.09;;;0.97;59.24
75039;BME280;63609;49.992;14.512;2024-03-08T00:15:15;98491.91;;;0.84;59.67
75039;BME280;63609;49.992;14.512;2024-03-08T00:17:44;98488.84;;;1.09;58.89
75039;BME280;63609;49.992;14.512;2024-03-08T00:20:12;98485.63;;;1.20;57.86
75039;BME280;63609;49.992;14.512;2024-03-08T00:22:41;98493.31;;;1.07;58.42
75039;BME280;63609;49.992;14.512;2024-03-08T00:25:08;98483.09;;;0.85;59.74
75039;BME280;63609;49.992;14.512;2024-03-08T00:27:36;98480.88;;;1.26;58.29
75039;BME280;63609;49.992;14.512;2024-03-08T00:30:04;98484.59;;;1.39;58.09
75039;BME280;63609;49.992;14.512;2024-03-08T00:32:32;98482.00;;;1.38;57.66
75039;BME280;63609;49.992;14.512;2024-03-08T00:34:59;98478.75;;;1.17;58.70
75039;BME280;63609;49.992;14.512;2024-03-08T00:37:26;98487.22;;;1.06;58.58
75039;BME280;63609;49.992;14.512;2024-03-08T00:39:53;98483.53;;;0.93;59.37
75039;BME280;63609;49.992;14.512;2024-03-08T00:42:20;98482.91;;;1.21;58.22
75039;BME280;63609;49.992;14.512;2024-03-08T00:44:47;98471.03;;;1.14;58.58
75039;BME280;63609;49.992;14.512;2024-03-08T00:47:18;98479.34;;;1.06;59.53
75039;BME280;63609;49.992;14.512;2024-03-08T00:49:46;98469.03;;;1.02;58.98
75039;BME280;63609;49.992;14.512;2024-03-08T00:52:14;98472.75;;;0.98;59.32
75039;BME280;63609;49.992;14.512;2024-03-08T00:54:41;98468.91;;;1.21;58.88
75039;BME280;63609;49.992;14.512;2024-03-08T00:57:10;98463.63;;;1.05;59.05
75039;BME280;63609;49.992;14.512;2024-03-08T00:59:38;98460.84;;;1.08;58.92
75039;BME280;63609;49.992;14.512;2024-03-08T01:03:31;98465.19;;;0.76;60.97
75039;BME280;63609;49.992;14.512;2024-03-08T01:05:58;98462.00;;;1.02;59.00
75039;BME280;63609;49.992;14.512;2024-03-08T01:08:28;98463.19;;;1.46;57.79
75039;BME280;63609;49.992;14.512;2024-03-08T01:10:55;98461.41;;;1.46;58.12
75039;BME280;63609;49.992;14.512;2024-03-08T01:13:22;98455.66;;;1.39;58.16
75039;BME280;63609;49.992;14.512;2024-03-08T01:15:49;98461.19;;;1.18;58.87
75039;BME280;63609;49.992;14.512;2024-03-08T01:18:16;98453.44;;;1.48;57.76
75039;BME280;63609;49.992;14.512;2024-03-08T01:20:43;98443.56;;;1.67;57.00
75039;BME280;63609;49.992;14.512;2024-03-08T01:23:11;98453.19;;;1.52;57.85
75039;BME280;63609;49.992;14.512;2024-03-08T01:25:38;98451.22;;;1.56;57.33
75039;BME280;63609;49.992;14.512;2024-03-08T01:28:06;98447.47;;;1.76;57.15
75039;BME280;63609;49.992;14.512;2024-03-08T01:30:35;98448.16;;;1.79;56.60
75039;BME280;63609;49.992;14.512;2024-03-08T01:33:04;98443.84;;;1.47;57.43
75039;BME280;63609;49.992;14.512;2024-03-08T01:35:31;98452.31;;;1.36;57.37
75039;BME280;63609;49.992;14.512;2024-03-08T01:37:58;98445.19;;;1.54;57.40
75039;BME280;63609;49.992;14.512;2024-03-08T01:40:25;98438.16;;;1.70;56.71
75039;BME280;63609;49.992;14.512;2024-03-08T01:42:51;98438.81;;;1.58;57.29
75039;BME280;63609;49.992;14.512;2024-03-08T01:45:19;98433.47;;;1.59;57.00
75039;BME280;63609;49.992;14.512;2024-03-08T01:47:47;98427.19;;;1.78;56.95
75039;BME280;63609;49.992;14.512;2024-03-08T01:50:15;98429.41;;;1.54;57.67
75039;BME280;63609;49.992;14.512;2024-03-08T01:52:44;98431.00;;;1.72;57.42
75039;BME280;63609;49.992;14.512;2024-03-08T01:55:12;98432.72;;;1.73;56.55
75039;BME280;63609;49.992;14.512;2024-03-08T01:57:42;98431.59;;;1.77;57.24
75039;BME280;63609;49.992;14.512;2024-03-08T02:00:10;98422.03;;;1.90;56.78
75039;BME280;63609;49.992;14.512;2024-03-08T02:02:42;98419.88;;;1.67;57.23
75039;BME280;63609;49.992;14.512;2024-03-08T02:05:11;98424.91;;;1.56;57.64
75039;BME280;63609;49.992;14.512;2024-03-08T02:07:41;98417.63;;;1.45;58.36
75039;BME280;63609;49.992;14.512;2024-03-08T02:10:11;98419.97;;;1.65;57.69
75039;BME280;63609;49.992;14.512;2024-03-08T02:12:39;98424.56;;;1.62;57.54
75039;BME280;63609;49.992;14.512;2024-03-08T02:15:06;98424.72;;;1.74;57.28
75039;BME280;63609;49.992;14.512;2024-03-08T02:17:33;98430.16;;;1.71;57.66
75039;BME280;63609;49.992;14.512;2024-03-08T02:20:00;98413.09;;;1.79;57.40
75039;BME280;63609;49.992;14.512;2024-03-08T02:22:28;98411.78;;;1.86;57.86
75039;BME280;63609;49.992;14.512;2024-03-08T02:24:57;98408.34;;;1.99;56.80
75039;BME280;63609;49.992;14.512;2024-03-08T02:27:24;98407.38;;;1.86;57.71
75039;BME280;63609;49.992;14.512;2024-03-08T02:29:57;98414.88;;;1.62;57.99
75039;BME280;63609;49.992;14.512;2024-03-08T02:32:24;98400.91;;;1.92;57.13
75039;BME280;63609;49.992;14.512;2024-03-08T02:34:51;98407.63;;;1.82;57.69
75039;BME280;63609;49.992;14.512;2024-03-08T02:37:22;98409.44;;;1.81;57.96
75039;BME280;63609;49.992;14.512;2024-03-08T02:39:49;98407.56;;;1.67;58.48
75039;BME280;63609;49.992;14.512;2024-03-08T02:42:16;98408.97;;;1.89;57.72
75039;BME280;63609;49.992;14.512;2024-03-08T02:44:43;98399.97;;;1.93;57.12
75039;BME280;63609;49.992;14.512;2024-03-08T02:47:10;98399.38;;;1.88;57.62
75039;BME280;63609;49.992;14.512;2024-03-08T02:49:37;98395.50;;;1.79;57.53
75039;BME280;63609;49.992;14.512;2024-03-08T02:52:04;98397.81;;;1.69;58.03
75039;BME280;63609;49.992;14.512;2024-03-08T02:54:31;98394.19;;;2.02;57.09
75039;BME280;63609;49.992;14.512;2024-03-08T02:56:58;98392.41;;;2.17;57.34
75039;BME280;63609;49.992;14.512;2024-03-08T02:59:25;98397.38;;;1.77;57.80
75039;BME280;63609;49.992;14.512;2024-03-08T03:01:52;98396.22;;;1.35;59.45
75039;BME280;63609;49.992;14.512;2024-03-08T03:04:19;98392.47;;;1.71;58.09
75039;BME280;63609;49.992;14.512;2024-03-08T03:06:46;98386.56;;;1.36;59.08
75039;BME280;63609;49.992;14.512;2024-03-08T03:09:13;98386.72;;;1.17;60.03
75039;BME280;63609;49.992;14.512;2024-03-08T03:11:44;98383.22;;;0.85;60.27
75039;BME280;63609;49.992;14.512;2024-03-08T03:14:11;98384.34;;;0.64;61.30
75039;BME280;63609;49.992;14.512;2024-03-08T03:16:38;98382.97;;;0.41;63.11
75039;BME280;63609;49.992;14.512;2024-03-08T03:19:05;98376.44;;;0.81;62.10
75039;BME280;63609;49.992;14.512;2024-03-08T03:21:32;98374.72;;;0.80;61.46
75039;BME280;63609;49.992;14.512;2024-03-08T03:23:59;98371.09;;;0.98;60.37
75039;BME280;63609;49.992;14.512;2024-03-08T03:26:26;98374.91;;;0.93;60.44
75039;BME280;63609;49.992;14.512;2024-03-08T03:28:53;98373.53;;;1.01;60.36
75039;BME280;63609;49.992;14.512;2024-03-08T03:31:20;98370.66;;;1.22;60.03
75039;BME280;63609;49.992;14.512;2024-03-08T03:33:50;98369.84;;;0.57;61.48
75039;BME280;63609;49.992;14.512;2024-03-08T03:36:19;98369.66;;;1.08;60.89
75039;BME280;63609;49.992;14.512;2024-03-08T03:38:46;98363.19;;;0.98;60.24
75039;BME280;63609;49.992;14.512;2024-03-08T03:41:13;98368.97;;;1.21;60.02
75039;BME280;63609;49.992;14.512;2024-03-08T03:43:42;98362.09;;;1.02;60.13
75039;BME280;63609;49.992;14.512;2024-03-08T03:46:09;98361.41;;;0.99;60.91
75039;BME280;63609;49.992;14.512;2024-03-08T03:48:37;98355.41;;;0.97;61.14
75039;BME280;63609;49.992;14.512;2024-03-08T03:51:04;98357.94;;;0.98;60.47
75039;BME280;63609;49.992;14.512;2024-03-08T03:53:31;98357.44;;;1.23;60.02
75039;BME280;63609;49.992;14.512;2024-03-08T03:55:58;98362.34;;;0.82;60.62
75039;BME280;63609;49.992;14.512;2024-03-08T03:58:26;98359.69;;;0.50;62.06
75039;BME280;63609;49.992;14.512;2024-03-08T04:00:53;98365.16;;;0.79;60.85
75039;BME280;63609;49.992;14.512;2024-03-08T04:03:20;98359.41;;;0.39;62.03
75039;BME280;63609;49.992;14.512;2024-03-08T04:05:48;98365.81;;;0.34;62.28
75039;BME280;63609;49.992;14.512;2024-03-08T04:08:16;98361.28;;;0.53;61.66
75039;BME280;63609;49.992;14.512;2024-03-08T04:10:50;98356.97;;;0.52;61.86
75039;BME280;63609;49.992;14.512;2024-03-08T04:13:17;98361.38;;;0.67;61.03
75039;BME280;63609;49.992;14.512;2024-03-08T04:15:45;98362.69;;;0.76;60.96
75039;BME280;63609;49.992;14.512;2024-03-08T04:18:16;98358.66;;;0.69;60.92
75039;BME280;63609;49.992;14.512;2024-03-08T04:20:46;98366.53;;;0.53;61.95
75039;BME280;63609;49.992;14.512;2024-03-08T04:23:14;98361.00;;;0.75;60.48
75039;BME280;63609;49.992;14.512;2024-03-08T04:25:42;98352.72;;;0.49;60.94
75039;BME280;63609;49.992;14.512;2024-03-08T04:28:10;98364.75;;;0.03;62.20
75039;BME280;63609;49.992;14.512;2024-03-08T04:30:39;98360.75;;;0.13;62.82
75039;BME280;63609;49.992;14.512;2024-03-08T04:33:10;98360.78;;;0.29;61.74
75039;BME280;63609;49.992;14.512;2024-03-08T04:35:36;98354.34;;;0.52;61.08
75039;BME280;63609;49.992;14.512;2024-03-08T04:38:03;98349.16;;;0.50;60.53
75039;BME280;63609;49.992;14.512;2024-03-08T04:40:32;98349.97;;;0.35;61.28
75039;BME280;63609;49.992;14.512;2024-03-08T04:42:59;98350.69;;;0.55;60.16
75039;BME280;63609;49.992;14.512;2024-03-08T04:45:25;98353.22;;;0.40;60.70
75039;BME280;63609;49.992;14.512;2024-03-08T04:47:52;98351.38;;;0.58;60.67
75039;BME280;63609;49.992;14.512;2024-03-08T04:50:19;98353.66;;;0.48;60.72
75039;BME280;63609;49.992;14.512;2024-03-08T04:52:46;98348.41;;;0.48;60.74
75039;BME280;63609;49.992;14.512;2024-03-08T04:55:13;98350.28;;;0.62;59.70
75039;BME280;63609;49.992;14.512;2024-03-08T04:57:39;98344.69;;;0.53;59.42
75039;BME280;63609;49.992;14.512;2024-03-08T05:00:09;98351.28;;;0.44;60.09
75039;BME280;63609;49.992;14.512;2024-03-08T05:02:38;98350.72;;;0.37;60.02
75039;BME280;63609;49.992;14.512;2024-03-08T05:05:05;98351.53;;;0.55;59.70
75039;BME280;63609;49.992;14.512;2024-03-08T05:07:32;98349.88;;;0.37;59.13
75039;BME280;63609;49.992;14.512;2024-03-08T05:09:59;98348.56;;;0.12;60.20
75039;BME280;63609;49.992;14.512;2024-03-08T05:12:26;98353.66;;;0.15;60.08
75039;BME280;63609;49.992;14.512;2024-03-08T05:14:53;98343.91;;;0.00;61.69
75039;BME280;63609;49.992;14.512;2024-03-08T05:17:20;98352.34;;;0.07;61.64
75039;BME280;63609;49.992;14.512;2024-03-08T05:19:47;98348.94;;;-0.13;61.43
75039;BME280;63609;49.992;14.512;2024-03-08T05:22:14;98348.94;;;-0.13;62.30
75039;BME280;63609;49.992;14.512;2024-03-08T05:24:41;98349.19;;;-0.17;62.04
75039;BME280;63609;49.992;14.512;2024-03-08T05:27:09;98354.91;;;-0.09;61.85
75039;BME280;63609;49.992;14.512;2024-03-08T05:29:36;98355.69;;;-0.24;63.23
75039;BME280;63609;49.992;14.512;2024-03-08T05:32:03;98355.84;;;-0.27;62.24
75039;BME280;63609;49.992;14.512;2024-03-08T05:34:30;98356.50;;;-0.06;62.22
75039;BME280;63609;49.992;14.512;2024-03-08T05:36:57;98357.34;;;-0.06;61.98
75039;BME280;63609;49.992;14.512;2024-03-08T05:39:25;98362.53;;;-0.22;61.69
75039;BME280;63609;49.992;14.512;2024-03-08T05:41:52;98350.66;;;-0.12;61.48
75039;BME280;63609;49.992;14.512;2024-03-08T05:44:19;98357.44;;;-0.07;61.46
75039;BME280;63609;49.992;14.512;2024-03-08T05:46:46;98357.84;;;-0.15;61.96
75039;BME280;63609;49.992;14.512;2024-03-08T05:49:14;98354.50;;;-0.53;62.87
75039;BME280;63609;49.992;14.512;2024-03-08T05:51:41;98357.22;;;-0.20;62.98
75039;BME280;63609;49.992;14.512;2024-03-08T05:54:10;98351.47;;;-0.28;63.15
75039;BME280;63609;49.992;14.512;2024-03-08T05:56:40;98358.22;;;-0.23;62.45
75039;BME280;63609;49.992;14.512;2024-03-08T05:59:11;98353.50;;;-0.33;63.10
75039;BME280;63609;49.992;14.512;2024-03-08T06:01:39;98352.81;;;-0.20;62.99
75039;BME280;63609;49.992;14.512;2024-03-08T06:04:09;98362.69;;;0.10;61.94
75039;BME280;63609;49.992;14.512;2024-03-08T06:06:39;98359.00;;;-0.21;62.60
75039;BME280;63609;49.992;14.512;2024-03-08T06:09:07;98363.63;;;-0.08;62.35
75039;BME280;63609;49.992;14.512;2024-03-08T06:11:44;98357.59;;;0.07;62.23
75039;BME280;63609;49.992;14.512;2024-03-08T06:14:11;98361.84;;;0.09;61.79
75039;BME280;63609;49.992;14.512;2024-03-08T06:16:38;98362.31;;;-0.17;63.60
75039;BME280;63609;49.992;14.512;2024-03-08T06:19:05;98351.09;;;-0.03;62.08
75039;BME280;63609;49.992;14.512;2024-03-08T06:21:33;98357.53;;;-0.09;62.04
75039;BME280;63609;49.992;14.512;2024-03-08T06:24:00;98356.50;;;0.11;62.60
75039;BME280;63609;49.992;14.512;2024-03-08T06:26:27;98351.75;;;0.35;61.27
75039;BME280;63609;49.992;14.512;2024-03-08T06:28:58;98355.34;;;0.49;61.13
75039;BME280;63609;49.992;14.512;2024-03-08T06:31:26;98356.19;;;0.50;61.46
75039;BME280;63609;49.992;14.512;2024-03-08T06:33:53;98356.66;;;0.74;60.92
75039;BME280;63609;49.992;14.512;2024-03-08T06:36:23;98349.81;;;0.87;60.69
75039;BME280;63609;49.992;14.512;2024-03-08T06:38:51;98350.06;;;0.82;60.06
75039;BME280;63609;49.992;14.512;2024-03-08T06:41:19;98352.09;;;0.93;60.07
75039;BME280;63609;49.992;14.512;2024-03-08T06:43:46;98343.69;;;1.02;60.88
75039;BME280;63609;49.992;14.512;2024-03-08T06:46:15;98348.53;;;0.94;60.13
75039;BME280;63609;49.992;14.512;2024-03-08T06:48:42;98344.06;;;1.12;60.71
75039;BME280;63609;49.992;14.512;2024-03-08T06:51:09;98348.03;;;1.51;59.20
75039;BME280;63609;49.992;14.512;2024-03-08T06:53:38;98353.69;;;1.59;59.01
75039;BME280;63609;49.992;14.512;2024-03-08T06:56:06;98342.66;;;1.68;59.04
75039;BME280;63609;49.992;14.512;2024-03-08T06:58:35;98345.41;;;1.81;58.07
75039;BME280;63609;49.992;14.512;2024-03-08T07:01:02;98349.91;;;2.09;58.05
75039;BME280;63609;49.992;14.512;2024-03-08T07:03:31;98344.16;;;2.02;58.05
75039;BME280;63609;49.992;14.512;2024-03-08T07:05:59;98344.06;;;2.32;58.03
75039;BME280;63609;49.992;14.512;2024-03-08T07:08:30;98344.75;;;2.78;57.26
75039;BME280;63609;49.992;14.512;2024-03-08T07:10:57;98340.97;;;2.54;57.31
75039;BME280;63609;49.992;14.512;2024-03-08T07:13:26;98343.50;;;2.13;57.71
75039;BME280;63609;49.992;14.512;2024-03-08T07:15:55;98342.56;;;2.14;57.88
75039;BME280;63609;49.992;14.512;2024-03-08T07:18:22;98342.59;;;1.98;58.50
75039;BME280;63609;49.992;14.512;2024-03-08T07:20:51;98332.44;;;1.92;58.80
75039;BME280;63609;49.992;14.512;2024-03-08T07:23:18;98328.63;;;2.26;57.70
75039;BME280;63609;49.992;14.512;2024-03-08T07:26:03;98331.84;;;1.72;58.02
75039;BME280;63609;49.992;14.512;2024-03-08T07:28:30;98326.94;;;2.11;57.77
75039;BME280;63609;49.992;14.512;2024-03-08T07:30:58;98326.22;;;2.37;56.37
75039;BME280;63609;49.992;14.512;2024-03-08T07:33:44;98327.41;;;2.60;55.22
75039;BME280;63609;49.992;14.512;2024-03-08T07:36:11;98322.88;;;2.90;54.59
75039;BME280;63609;49.992;14.512;2024-03-08T07:38:39;98315.25;;;3.00;54.62
75039;BME280;63609;49.992;14.512;2024-03-08T07:41:05;98319.72;;;2.71;54.71
75039;BME280;63609;49.992;14.512;2024-03-08T07:43:32;98314.75;;;2.93;55.09
75039;BME280;63609;49.992;14.512;2024-03-08T07:46:00;98322.25;;;2.73;55.88
75039;BME280;63609;49.992;14.512;2024-03-08T07:48:26;98317.03;;;2.99;54.69
75039;BME280;63609;49.992;14.512;2024-03-08T07:50:54;98309.78;;;2.89;54.60
75039;BME280;63609;49.992;14.512;2024-03-08T07:53:20;98305.53;;;3.01;54.46
75039;BME280;63609;49.992;14.512;2024-03-08T07:55:47;98307.81;;;3.19;54.25
75039;BME280;63609;49.992;14.512;2024-03-08T07:58:14;98310.13;;;3.11;53.00
75039;BME280;63609;49.992;14.512;2024-03-08T08:00:41;98308.88;;;2.76;54.19
75039;BME280;63609;49.992;14.512;2024-03-08T08:03:10;98305.44;;;2.88;54.23
75039;BME280;63609;49.992;14.512;2024-03-08T08:05:37;98304.69;;;2.86;54.33
75039;BME280;63609;49.992;14.512;2024-03-08T08:08:08;98297.16;;;2.94;53.85
75039;BME280;63609;49.992;14.512;2024-03-08T08:10:38;98295.56;;;2.91;54.34
75039;BME280;63609;49.992;14.512;2024-03-08T08:13:05;98303.06;;;2.97;54.23
75039;BME280;63609;49.992;14.512;2024-03-08T08:15:32;98298.91;;;3.08;53.47
75039;BME280;63609;49.992;14.512;2024-03-08T08:18:01;98300.25;;;3.01;52.46
75039;BME280;63609;49.992;14.512;2024-03-08T08:20:29;98288.91;;;3.40;51.92
75039;BME280;63609;49.992;14.512;2024-03-08T08:22:56;98286.94;;;3.56;52.66
75039;BME280;63609;49.992;14.512;2024-03-08T08:25:23;98292.25;;;3.69;51.94
75039;BME280;63609;49.992;14.512;2024-03-08T08:27:51;98295.28;;;4.15;51.31
75039;BME280;63609;49.992;14.512;2024-03-08T08:30:20;98285.66;;;4.39;50.14
75039;BME280;63609;49.992;14.512;2024-03-08T08:32:47;98287.22;;;4.54;49.75
75039;BME280;63609;49.992;14.512;2024-03-08T08:35:16;98291.59;;;4.17;49.69
75039;BME280;63609;49.992;14.512;2024-03-08T08:37:43;98287.44;;;4.26;49.76
75039;BME280;63609;49.992;14.512;2024-03-08T08:40:11;98281.22;;;4.40;49.59
75039;BME280;63609;49.992;14.512;2024-03-08T08:42:42;98271.75;;;4.74;48.03
75039;BME280;63609;49.992;14.512;2024-03-08T08:45:09;98275.69;;;5.05;48.19
75039;BME280;63609;49.992;14.512;2024-03-08T08:47:46;98276.78;;;4.90;47.83
75039;BME280;63609;49.992;14.512;2024-03-08T08:50:14;98275.44;;;5.08;48.09
75039;BME280;63609;49.992;14.512;2024-03-08T08:52:44;98266.06;;;5.28;45.51
75039;BME280;63609;49.992;14.512;2024-03-08T08:55:11;98274.16;;;5.37;47.39
75039;BME280;63609;49.992;14.512;2024-03-08T08:57:41;98268.75;;;5.39;47.35
75039;BME280;63609;49.992;14.512;2024-03-08T09:00:09;98263.47;;;5.39;46.56
75039;BME280;63609;49.992;14.512;2024-03-08T09:02:41;98267.72;;;5.88;47.18
75039;BME280;63609;49.992;14.512;2024-03-08T09:05:09;98261.25;;;5.92;46.10
75039;BME280;63609;49.992;14.512;2024-03-08T09:07:38;98262.97;;;5.69;45.76
75039;BME280;63609;49.992;14.512;2024-03-08T09:10:07;98269.41;;;5.54;46.63
75039;BME280;63609;49.992;14.512;2024-03-08T09:12:39;98259.22;;;5.95;46.22
75039;BME280;63609;49.992;14.512;2024-03-08T09:15:07;98265.91;;;5.53;45.70
75039;BME280;63609;49.992;14.512;2024-03-08T09:17:41;98258.94;;;5.87;44.93
75039;BME280;63609;49.992;14.512;2024-03-08T09:20:09;98256.47;;;5.38;46.03
75039;BME280;63609;49.992;14.512;2024-03-08T09:22:37;98257.13;;;5.76;44.77
75039;BME280;63609;49.992;14.512;2024-03-08T09:25:04;98254.66;;;6.20;44.26
75039;BME280;63609;49.992;14.512;2024-03-08T09:27:32;98245.66;;;6.56;43.80
75039;BME280;63609;49.992;14.512;2024-03-08T09:30:05;98250.75;;;7.02;42.63
75039;BME280;63609;49.992;14.512;2024-03-08T09:32:34;98245.97;;;6.18;44.19
75039;BME280;63609;49.992;14.512;2024-03-08T09:35:01;98250.81;;;6.13;43.91
75039;BME280;63609;49.992;14.512;2024-03-08T09:37:29;98245.63;;;6.67;43.40
75039;BME280;63609;49.992;14.512;2024-03-08T09:39:56;98238.63;;;7.20;43.69
75039;BME280;63609;49.992;14.512;2024-03-08T09:42:24;98244.31;;;7.80;42.56
75039;BME280;63609;49.992;14.512;2024-03-08T09:44:51;98237.97;;;7.71;41.13
75039;BME280;63609;49.992;14.512;2024-03-08T09:47:21;98241.66;;;7.59;42.32
75039;BME280;63609;49.992;14.512;2024-03-08T09:49:49;98241.25;;;7.63;42.49
75039;BME280;63609;49.992;14.512;2024-03-08T09:52:16;98235.88;;;7.22;42.04
75039;BME280;63609;49.992;14.512;2024-03-08T09:54:44;98234.16;;;7.32;40.71
75039;BME280;63609;49.992;14.512;2024-03-08T09:57:11;98236.66;;;7.65;42.28
75039;BME280;63609;49.992;14.512;2024-03-08T09:59:38;98227.66;;;7.99;41.19
75039;BME280;63609;49.992;14.512;2024-03-08T10:02:05;98231.50;;;7.32;42.26
75039;BME280;63609;49.992;14.512;2024-03-08T10:04:32;98224.28;;;7.55;42.72
75039;BME280;63609;49.992;14.512;2024-03-08T10:07:01;98222.72;;;7.09;43.17
75039;BME280;63609;49.992;14.512;2024-03-08T10:09:28;98218.75;;;7.47;43.46
75039;BME280;63609;49.992;14.512;2024-03-08T10:11:58;98218.56;;;7.80;41.80
75039;BME280;63609;49.992;14.512;2024-03-08T10:14:26;98209.81;;;8.81;39.72
75039;BME280;63609;49.992;14.512;2024-03-08T10:16:57;98212.94;;;8.55;41.08
75039;BME280;63609;49.992;14.512;2024-03-08T10:19:27;98216.38;;;8.16;40.87
75039;BME280;63609;49.992;14.512;2024-03-08T10:21:57;98215.81;;;8.12;41.51
75039;BME280;63609;49.992;14.512;2024-03-08T10:24:26;98211.81;;;7.34;41.80
75039;BME280;63609;49.992;14.512;2024-03-08T10:27:02;98217.34;;;7.84;42.32
75039;BME280;63609;49.992;14.512;2024-03-08T10:29:32;98214.09;;;8.02;41.68
75039;BME280;63609;49.992;14.512;2024-03-08T10:31:59;98207.25;;;8.09;42.38
75039;BME280;63609;49.992;14.512;2024-03-08T10:34:28;98206.47;;;7.67;41.37
75039;BME280;63609;49.992;14.512;2024-03-08T10:37:03;98209.34;;;7.84;41.99
75039;BME280;63609;49.992;14.512;2024-03-08T10:39:36;98201.28;;;7.01;43.09
75039;BME280;63609;49.992;14.512;2024-03-08T10:42:04;98204.88;;;8.06;41.52
75039;BME280;63609;49.992;14.512;2024-03-08T10:44:50;98197.19;;;8.12;41.33
75039;BME280;63609;49.992;14.512;2024-03-08T10:47:26;98193.88;;;8.91;40.68
75039;BME280;63609;49.992;14.512;2024-03-08T10:50:20;98196.00;;;9.16;39.66
75039;BME280;63609;49.992;14.512;2024-03-08T10:52:50;98193.19;;;8.58;40.70
75039;BME280;63609;49.992;14.512;2024-03-08T10:55:19;98182.44;;;8.19;41.34
75039;BME280;63609;49.992;14.512;2024-03-08T10:57:47;98181.28;;;8.52;41.34
75039;BME280;63609;49.992;14.512;2024-03-08T11:00:14;98181.34;;;8.01;42.27
75039;BME280;63609;49.992;14.512;2024-03-08T11:02:46;98178.38;;;7.94;42.37
75039;BME280;63609;49.992;14.512;2024-03-08T11:10:50;98169.03;;;8.31;42.38
75039;BME280;63609;49.992;14.512;2024-03-08T11:13:42;98173.47;;;7.69;43.88
75039;BME280;63609;49.992;14.512;2024-03-08T11:19:22;98162.50;;;8.14;42.88
75039;BME280;63609;49.992;14.512;2024-03-08T11:22:00;98159.56;;;8.17;43.86
75039;BME280;63609;49.992;14.512;2024-03-08T11:24:28;98156.13;;;7.95;42.91
75039;BME280;63609;49.992;14.512;2024-03-08T11:27:04;98157.88;;;8.16;42.93
75039;BME280;63609;49.992;14.512;2024-03-08T11:34:42;98146.50;;;7.74;43.13
75039;BME280;63609;49.992;14.512;2024-03-08T11:37:13;98136.69;;;8.95;41.85
75039;BME280;63609;49.992;14.512;2024-03-08T11:39:52;98137.34;;;8.68;41.88
75039;BME280;63609;49.992;14.512;2024-03-08T11:42:25;98132.91;;;8.38;42.74
75039;BME280;63609;49.992;14.512;2024-03-08T11:44:55;98125.31;;;8.83;41.59
75039;BME280;63609;49.992;14.512;2024-03-08T11:47:22;98125.81;;;8.08;42.18
75039;BME280;63609;49.992;14.512;2024-03-08T11:49:50;98130.13;;;6.95;46.58
75039;BME280;63609;49.992;14.512;2024-03-08T11:52:18;98123.25;;;7.66;44.13
75039;BME280;63609;49.992;14.512;2024-03-08T11:54:52;98113.66;;;8.65;43.45
75039;BME280;63609;49.992;14.512;2024-03-08T11:57:25;98118.97;;;8.15;42.50
75039;BME280;63609;49.992;14.512;2024-03-08T11:59:52;98116.84;;;8.49;42.41
75039;BME280;63609;49.992;14.512;2024-03-08T12:02:26;98119.22;;;7.51;45.31
75039;BME280;63609;49.992;14.512;2024-03-08T12:04:58;98113.47;;;7.97;43.93
75039;BME280;63609;49.992;14.512;2024-03-08T12:07:39;98110.63;;;8.19;43.71
75039;BME280;63609;49.992;14.512;2024-03-08T12:10:21;98109.22;;;8.25;44.55
75039;BME280;63609;49.992;14.512;2024-03-08T12:12:51;98115.13;;;8.28;43.24
75039;BME280;63609;49.992;14.512;2024-03-08T12:15:20;98119.97;;;7.32;45.70
75039;BME280;63609;49.992;14.512;2024-03-08T12:17:52;98116.28;;;7.12;45.26
75039;BME280;63609;49.992;14.512;2024-03-08T12:20:22;98119.53;;;7.16;46.71
75039;BME280;63609;49.992;14.512;2024-03-08T12:22:50;98119.75;;;7.45;44.99
75039;BME280;63609;49.992;14.512;2024-03-08T12:25:21;98114.78;;;7.30;45.35
75039;BME280;63609;49.992;14.512;2024-03-08T12:27:48;98111.41;;;7.28;47.03
75039;BME280;63609;49.992;14.512;2024-03-08T12:30:26;98104.56;;;5.85;49.07
75039;BME280;63609;49.992;14.512;2024-03-08T12:32:55;98115.53;;;5.92;50.98
75039;BME280;63609;49.992;14.512;2024-03-08T12:35:26;98119.41;;;6.53;48.20
75039;BME280;63609;49.992;14.512;2024-03-08T12:37:55;98108.84;;;7.06;47.10
75039;BME280;63609;49.992;14.512;2024-03-08T12:40:27;98109.16;;;6.92;45.85
75039;BME280;63609;49.992;14.512;2024-03-08T12:42:55;98102.78;;;7.57;45.49
75039;BME280;63609;49.992;14.512;2024-03-08T12:45:23;98104.84;;;6.80;46.03
75039;BME280;63609;49.992;14.512;2024-03-08T12:47:51;98099.25;;;6.94;47.15
75039;BME280;63609;49.992;14.512;2024-03-08T12:50:19;98095.97;;;6.69;46.58
75039;BME280;63609;49.992;14.512;2024-03-08T12:52:46;98095.38;;;7.19;46.01
75039;BME280;63609;49.992;14.512;2024-03-08T12:55:15;98095.38;;;7.19;46.92
75039;BME280;63609;49.992;14.512;2024-03-08T12:57:43;98088.72;;;7.24;45.94
75039;BME280;63609;49.992;14.512;2024-03-08T13:00:11;98082.91;;;7.30;45.53
75039;BME280;63609;49.992;14.512;2024-03-08T13:02:46;98074.13;;;7.19;45.91
75039;BME280;63609;49.992;14.512;2024-03-08T13:05:14;98081.78;;;6.91;46.19
75039;BME280;63609;49.992;14.512;2024-03-08T13:07:41;98079.38;;;7.09;46.39
75039;BME280;63609;49.992;14.512;2024-03-08T13:10:14;98063.91;;;7.14;45.92
75039;BME280;63609;49.992;14.512;2024-03-08T13:12:44;98070.72;;;7.07;45.57
75039;BME280;63609;49.992;14.512;2024-03-08T13:15:12;98070.72;;;7.07;45.75
75039;BME280;63609;49.992;14.512;2024-03-08T13:17:49;98070.34;;;6.80;46.93
75039;BME280;63609;49.992;14.512;2024-03-08T13:20:17;98070.63;;;7.18;45.90
75039;BME280;63609;49.992;14.512;2024-03-08T13:22:56;98070.56;;;7.09;46.24